This is the latest recevied weather packets stored in our database for station/object DC4XK-10. If no packets are shown the sender has not sent any weather packets the latest 10 day(s).
| Time | Temp. | Humidity | Pressure | Rain* | Wind** | Luminosity | Snow |
|---|---|---|---|---|---|---|---|
| 1777457332 | 14.44° C | 39% | 1029.3 hPa | 0 mm | 0.45 m/s, 309° | - | - |
| 1777456731 | 16.11° C | 36% | 1029.4 hPa | 0 mm | 0 m/s | - | - |
| 1777456131 | 15° C | 37% | 1029.3 hPa | 0 mm | 0.89 m/s, 243° | - | - |
| 1777455534 | 14.44° C | 38% | 1029.6 hPa | 0 mm | 0.89 m/s, 88° | - | - |
| 1777454931 | 13.33° C | 40% | 1029.5 hPa | 0 mm | 0.89 m/s, 329° | - | - |
| 1777454331 | 14.44° C | 38% | 1029.5 hPa | 0 mm | 0 m/s | - | - |
| 1777453734 | 15° C | 43% | 1029.7 hPa | 0 mm | 0 m/s | - | - |
| 1777453131 | 13.33° C | 45% | 1029.3 hPa | 0 mm | 0 m/s | - | - |
| 1777452531 | 12.78° C | 48% | 1029.5 hPa | 0 mm | 0 m/s | - | - |
| 1777451930 | 12.78° C | 47% | 1029.3 hPa | 0 mm | 0 m/s | - | - |
| 1777451331 | 12.22° C | 50% | 1029.2 hPa | 0 mm | 1.79 m/s, 310° | - | - |
| 1777450731 | 11.11° C | 60% | 1029.1 hPa | 0 mm | 0.89 m/s, 353° | - | - |
| 1777450130 | 10.56° C | 68% | 1029.3 hPa | 0 mm | 0 m/s | - | - |
| 1777449531 | 10.56° C | 70% | 1029.2 hPa | 0 mm | 0 m/s | - | - |
| 1777448931 | 10° C | 75% | 1029.2 hPa | 0 mm | 0.89 m/s, 18° | - | - |
| 1777448331 | 10° C | 77% | 1029.1 hPa | 0 mm | 0.89 m/s, 265° | - | - |
| 1777447731 | 9.44° C | 78% | 1028.9 hPa | 0 mm | 1.79 m/s, 326° | - | - |
| 1777447132 | 8.89° C | 79% | 1028.9 hPa | 0 mm | 0.89 m/s, 345° | - | - |
| 1777446530 | 8.89° C | 81% | 1028.9 hPa | 0 mm | 1.79 m/s, 320° | - | - |
| 1777445931 | 8.89° C | 81% | 1028.8 hPa | 0 mm | 0.89 m/s, 294° | - | - |
| 1777445333 | 8.33° C | 83% | 1028.8 hPa | 0 mm | 0 m/s | - | - |
| 1777444731 | 8.33° C | 85% | 1028.7 hPa | 0 mm | 0 m/s | - | - |
| 1777444131 | 7.78° C | 87% | 1028.9 hPa | 0 mm | 0.45 m/s, 300° | - | - |
| 1777443533 | 7.22° C | 89% | 1028.8 hPa | 0 mm | 0.89 m/s, 344° | - | - |
| 1777442931 | 6.67° C | 91% | 1029 hPa | 0 mm | 0.89 m/s, 346° | - | - |
* Rain latest hour (hover to see other rain measurements)
** Current wind speed in m/s (hover to see current wind gust speed)